Time;durP1;ratioP1;P1;durP2;ratioP2;P2;SDS_P1;SDS_P2;PMS_P1;PMS_P2;Temp;Humidity;BMP_temperature;BMP_pressure;BME280_temperature;BME280_humidity;BME280_pressure;Samples;Min_cycle;Max_cycle;Signal;HPM_P1;HPM_P2
2022/04/16 00:00:23;;;;;;;2.43;2.23;;;12.10;92.50;;;;;;5089713;28;20192;-58
2022/04/16 00:02:48;;;;;;;3.08;2.78;;;11.90;92.40;;;;;;5091079;28;20963;-59
2022/04/16 00:05:15;;;;;;;2.50;2.30;;;12.00;92.50;;;;;;5091426;28;20219;-58
2022/04/16 00:07:41;;;;;;;2.55;2.40;;;11.90;92.70;;;;;;5085791;28;20204;-58
2022/04/16 00:10:08;;;;;;;3.15;2.85;;;11.90;92.70;;;;;;5086936;28;20194;-58
2022/04/16 00:12:33;;;;;;;2.75;2.55;;;11.70;92.50;;;;;;5084917;28;20215;-58
2022/04/16 00:14:59;;;;;;;3.77;2.63;;;12.00;92.80;;;;;;5092946;28;20176;-58
2022/04/16 00:17:25;;;;;;;3.30;2.60;;;11.90;92.70;;;;;;5085265;28;20188;-59
2022/04/16 00:19:51;;;;;;;2.33;2.13;;;11.60;92.60;;;;;;5090869;28;20419;-57
2022/04/16 00:22:18;;;;;;;2.97;2.67;;;11.60;92.60;;;;;;5087994;28;20420;-58
2022/04/16 00:24:46;;;;;;;2.65;2.45;;;11.60;92.70;;;;;;5084046;28;20693;-57
2022/04/16 00:27:12;;;;;;;2.50;2.30;;;11.70;92.70;;;;;;5083033;28;20237;-58
2022/04/16 00:29:37;;;;;;;2.87;2.23;;;11.70;93.00;;;;;;5091110;28;20190;-58
2022/04/16 00:32:07;;;;;;;3.00;2.30;;;11.20;92.70;;;;;;5090544;28;20201;-58
2022/04/16 00:34:33;;;;;;;2.60;2.40;;;11.60;93.00;;;;;;5084307;28;20591;-58
2022/04/16 00:36:59;;;;;;;2.97;2.40;;;11.80;93.10;;;;;;5089711;28;20266;-58
2022/04/16 00:39:25;;;;;;;2.60;2.40;;;11.80;93.20;;;;;;5084558;28;20265;-57
2022/04/16 00:41:51;;;;;;;2.55;2.35;;;11.60;93.50;;;;;;5088209;28;20443;-58
2022/04/16 00:44:20;;;;;;;2.92;2.28;;;11.40;93.50;;;;;;5071379;28;20206;-61
2022/04/16 00:46:49;;;;;;;3.10;2.13;;;11.50;93.20;;;;;;5082585;28;20202;-57
2022/04/16 00:49:15;;;;;;;1.83;1.73;;;11.60;93.20;;;;;;5093557;28;20549;-58
2022/04/16 00:51:48;;;;;;;2.37;2.17;;;11.30;93.20;;;;;;5090687;28;20263;-58
2022/04/16 00:54:13;;;;;;;2.50;2.30;;;11.20;93.30;;;;;;5088704;28;20467;-58
2022/04/16 00:56:39;;;;;;;2.87;2.60;;;11.20;94.00;;;;;;5089394;28;20227;-58
2022/04/16 00:59:05;;;;;;;2.60;2.40;;;11.30;93.90;;;;;;5090241;28;20182;-58
2022/04/16 01:01:32;;;;;;;3.38;2.65;;;11.40;94.00;;;;;;5087414;28;20265;-58
2022/04/16 01:03:57;;;;;;;2.30;2.20;;;11.40;94.00;;;;;;5087784;28;20596;-58
2022/04/16 01:06:23;;;;;;;3.13;2.93;;;11.20;94.00;;;;;;5087511;28;20267;-58
2022/04/16 01:08:49;;;;;;;3.00;2.80;;;11.30;94.10;;;;;;5079390;28;20318;-58
2022/04/16 01:11:15;;;;;;;2.77;2.57;;;11.40;94.10;;;;;;5087121;28;20189;-57
2022/04/16 01:13:46;;;;;;;3.17;2.60;;;11.40;94.00;;;;;;5070744;28;20244;-58
2022/04/16 01:16:11;;;;;;;2.08;1.88;;;11.20;93.90;;;;;;5067748;28;20661;-58
2022/04/16 01:18:47;;;;;;;2.30;2.20;;;11.10;94.00;;;;;;5085881;28;20258;-57
2022/04/16 01:21:14;;;;;;;3.75;2.10;;;11.40;94.10;;;;;;5082594;28;21001;-58
2022/04/16 01:23:40;;;;;;;2.35;2.15;;;11.30;93.30;;;;;;5091787;28;20217;-58
2022/04/16 01:26:06;;;;;;;2.43;2.23;;;11.60;93.30;;;;;;5088001;28;20532;-58
2022/04/16 01:28:32;;;;;;;2.25;2.05;;;11.40;93.80;;;;;;5088698;28;20191;-57
2022/04/16 01:30:58;;;;;;;3.28;2.60;;;11.40;93.70;;;;;;5085668;28;20216;-57
2022/04/16 01:33:23;;;;;;;2.57;2.37;;;11.50;93.80;;;;;;5089398;28;20263;-58
2022/04/16 01:35:56;;;;;;;2.40;2.20;;;11.40;93.70;;;;;;5087631;28;20193;-58
2022/04/16 01:38:25;;;;;;;2.13;2.03;;;11.70;93.70;;;;;;5086734;28;20222;-58
2022/04/16 01:40:53;;;;;;;2.42;2.22;;;12.00;93.40;;;;;;5091194;28;20197;-58
2022/04/16 01:43:19;;;;;;;3.33;2.05;;;11.40;92.80;;;;;;5083157;28;20231;-57
2022/04/16 01:45:44;;;;;;;2.73;2.53;;;11.60;93.10;;;;;;5085669;28;20653;-57
2022/04/16 01:48:13;;;;;;;2.43;2.23;;;11.70;93.20;;;;;;5090200;28;20181;-57
2022/04/16 01:50:39;;;;;;;2.85;2.65;;;11.40;93.30;;;;;;5085325;28;20213;-58
2022/04/16 01:53:05;;;;;;;3.20;2.53;;;11.00;93.30;;;;;;5089379;28;20598;-58
2022/04/16 01:55:30;;;;;;;2.53;2.33;;;11.00;93.50;;;;;;5078873;28;20179;-58
2022/04/16 01:57:56;;;;;;;2.43;2.23;;;10.60;93.60;;;;;;5088856;28;20688;-58
2022/04/16 02:00:23;;;;;;;2.30;2.10;;;11.00;94.20;;;;;;5086056;28;20187;-57
2022/04/16 02:02:48;;;;;;;2.10;2.00;;;10.90;94.10;;;;;;5082300;28;20216;-58
2022/04/16 02:05:14;;;;;;;2.90;2.60;;;11.00;94.40;;;;;;5089769;28;20209;-58
2022/04/16 02:07:39;;;;;;;2.90;2.70;;;11.10;94.50;;;;;;5088738;28;20566;-58
2022/04/16 02:10:06;;;;;;;2.53;2.33;;;10.80;94.30;;;;;;5087899;28;20255;-58
2022/04/16 02:12:32;;;;;;;3.83;2.53;;;11.00;94.60;;;;;;5083703;28;20642;-57
2022/04/16 02:14:57;;;;;;;2.50;2.30;;;10.80;94.80;;;;;;5069865;28;20262;-58
2022/04/16 02:17:23;;;;;;;2.47;2.27;;;10.80;95.00;;;;;;5081608;28;20834;-58
2022/04/16 02:19:48;;;;;;;6.10;2.70;;;10.00;94.70;;;;;;5085694;28;20661;-58
2022/04/16 02:22:16;;;;;;;2.03;1.83;;;10.50;95.30;;;;;;5091510;28;20549;-58
2022/04/16 02:24:41;;;;;;;2.20;2.00;;;10.10;95.20;;;;;;5085090;28;20613;-58
2022/04/16 02:27:07;;;;;;;2.70;2.50;;;10.60;95.70;;;;;;5093934;28;20230;-57
2022/04/16 02:29:34;;;;;;;3.80;2.27;;;10.30;95.80;;;;;;5087515;28;20227;-58
2022/04/16 02:32:03;;;;;;;2.35;2.15;;;10.30;95.90;;;;;;5088576;28;20226;-58
2022/04/16 02:34:28;;;;;;;2.67;2.15;;;10.60;96.20;;;;;;5088279;28;20262;-57
2022/04/16 02:36:54;;;;;;;2.10;2.00;;;10.30;96.40;;;;;;5095095;28;20183;-58
2022/04/16 02:39:20;;;;;;;2.13;2.03;;;10.20;96.70;;;;;;5088121;28;20216;-57
2022/04/16 02:41:45;;;;;;;2.70;2.50;;;10.00;96.70;;;;;;5088283;28;20700;-58
2022/04/16 02:47:05;;;;;;;2.60;2.40;;;10.10;96.80;;;;;;5089611;28;20303;-58
2022/04/16 02:47:05;;;;;;;2.72;2.53;;;10.00;96.90;;;;;;5089652;28;20252;-60
2022/04/16 02:49:39;;;;;;;2.63;2.42;;;10.50;97.40;;;;;;5101937;28;20266;-57
2022/04/16 02:52:05;;;;;;;2.88;2.67;;;10.00;97.40;;;;;;5093550;28;20185;-58
2022/04/16 02:54:31;;;;;;;2.65;2.45;;;10.10;98.10;;;;;;5074076;28;20200;-58
2022/04/16 02:56:57;;;;;;;2.40;2.20;;;10.10;97.80;;;;;;5087320;28;20264;-58
2022/04/16 02:59:23;;;;;;;2.40;2.20;;;9.80;98.70;;;;;;5089855;28;20437;-57
2022/04/16 03:01:49;;;;;;;2.90;2.60;;;9.80;98.50;;;;;;5090665;28;20420;-58
2022/04/16 03:04:14;;;;;;;2.80;2.27;;;9.70;99.00;;;;;;5090150;28;20506;-57
2022/04/16 03:06:40;;;;;;;3.60;2.30;;;9.70;98.90;;;;;;5092219;28;20478;-58
2022/04/16 03:09:06;;;;;;;3.27;2.97;;;9.60;98.90;;;;;;5092163;28;20200;-57
2022/04/16 03:11:32;;;;;;;3.13;2.93;;;9.70;99.10;;;;;;5088103;28;20192;-57
2022/04/16 03:17:31;;;;;;;2.63;2.42;;;9.60;99.20;;;;;;5091853;28;20704;-58
2022/04/16 03:19:27;;;;;;;2.92;2.63;;;9.60;99.40;;;;;;5091470;28;20237;-58
2022/04/16 03:21:52;;;;;;;3.30;2.50;;;9.20;99.80;;;;;;5090840;28;20184;-57
2022/04/16 03:24:18;;;;;;;2.40;2.20;;;9.50;99.80;;;;;;5094770;28;20263;-57
2022/04/16 03:26:44;;;;;;;4.73;2.30;;;9.60;99.80;;;;;;5072971;28;20191;-57
2022/04/16 03:29:09;;;;;;;2.93;2.43;;;9.60;99.90;;;;;;5091737;28;20260;-58
2022/04/16 03:31:35;;;;;;;2.77;2.57;;;9.60;99.90;;;;;;5088058;28;20603;-57
2022/04/16 03:34:01;;;;;;;2.87;2.67;;;9.60;99.90;;;;;;5085167;28;20239;-57
2022/04/16 03:36:26;;;;;;;2.77;2.57;;;9.50;99.90;;;;;;5091031;28;20653;-58
2022/04/16 03:38:52;;;;;;;2.80;2.60;;;9.50;99.90;;;;;;5074776;28;20187;-58
2022/04/16 03:41:18;;;;;;;2.67;2.47;;;9.80;99.90;;;;;;5087530;28;20701;-57
2022/04/16 03:43:43;;;;;;;2.60;2.40;;;9.60;99.90;;;;;;5092519;28;20252;-57
2022/04/16 03:46:09;;;;;;;2.97;2.67;;;9.70;99.90;;;;;;5087356;28;20185;-57
2022/04/16 03:48:34;;;;;;;2.50;2.30;;;9.60;99.90;;;;;;5092090;28;20604;-58
2022/04/16 03:51:00;;;;;;;2.97;2.77;;;9.70;99.90;;;;;;5091542;28;20223;-58
2022/04/16 03:53:25;;;;;;;3.20;2.90;;;9.70;99.90;;;;;;5088907;28;20762;-59
2022/04/16 04:01:19;;;;;;;3.45;2.90;;;9.80;99.70;;;;;;5091117;28;20186;-58
2022/04/16 04:03:46;;;;;;;3.40;3.10;;;9.70;99.80;;;;;;5091300;28;20224;-58
2022/04/16 04:06:12;;;;;;;3.00;2.60;;;9.80;99.90;;;;;;5084024;28;20596;-57
2022/04/16 04:08:38;;;;;;;3.10;2.50;;;9.80;99.90;;;;;;5086549;28;20185;-57
2022/04/16 04:11:04;;;;;;;2.80;2.60;;;9.70;99.90;;;;;;5086495;28;20192;-59
2022/04/16 04:13:29;;;;;;;3.67;2.83;;;9.70;99.90;;;;;;5094588;28;20299;-57
2022/04/16 04:15:55;;;;;;;3.27;2.97;;;9.80;99.90;;;;;;5081802;28;20272;-58
2022/04/16 04:18:22;;;;;;;3.03;2.83;;;10.00;99.90;;;;;;5088816;28;20184;-58
2022/04/16 04:20:48;;;;;;;3.55;3.25;;;9.90;99.90;;;;;;5090877;28;20190;-57
2022/04/16 04:23:13;;;;;;;2.70;2.50;;;9.80;99.90;;;;;;5088532;28;20209;-57
2022/04/16 04:25:39;;;;;;;2.80;2.53;;;9.60;99.90;;;;;;5087554;28;20185;-58
2022/04/16 04:28:05;;;;;;;3.30;3.00;;;9.80;99.90;;;;;;5090682;28;20216;-58
2022/04/16 04:30:30;;;;;;;3.80;3.10;;;9.60;99.90;;;;;;5094214;28;20204;-57
2022/04/16 04:32:57;;;;;;;3.80;3.50;;;9.80;99.90;;;;;;5085273;28;20205;-57
2022/04/16 04:35:22;;;;;;;4.30;4.00;;;10.30;99.90;;;;;;5083790;28;20185;-57
2022/04/16 04:37:48;;;;;;;3.47;3.17;;;9.90;99.90;;;;;;5084686;28;20673;-58
2022/04/16 04:40:14;;;;;;;3.40;3.10;;;10.10;99.30;;;;;;5084842;28;20532;-57
2022/04/16 04:42:39;;;;;;;3.30;3.10;;;10.10;99.10;;;;;;5083923;28;20230;-57
2022/04/16 04:45:13;;;;;;;3.43;3.13;;;10.00;99.40;;;;;;5085731;28;20189;-57
2022/04/16 04:47:39;;;;;;;3.15;2.50;;;10.10;99.20;;;;;;5086653;28;20224;-57
2022/04/16 04:50:06;;;;;;;3.03;2.83;;;10.30;99.10;;;;;;5087891;28;20185;-58
2022/04/16 04:52:32;;;;;;;3.00;2.75;;;9.90;99.70;;;;;;5089245;28;20212;-58
2022/04/16 04:54:58;;;;;;;3.75;3.10;;;10.00;99.00;;;;;;5086607;28;20664;-57
2022/04/16 04:57:25;;;;;;;3.05;2.75;;;10.50;99.20;;;;;;5081836;28;20193;-57
2022/04/16 04:59:50;;;;;;;2.97;2.75;;;10.20;98.80;;;;;;5070655;28;20189;-57
2022/04/16 05:02:16;;;;;;;2.87;2.67;;;9.60;99.20;;;;;;5079094;28;20305;-57
2022/04/16 05:04:42;;;;;;;5.00;3.13;;;10.10;98.60;;;;;;5098453;28;20220;-58
2022/04/16 05:07:09;;;;;;;3.40;3.10;;;10.50;98.90;;;;;;5086453;28;20188;-58
2022/04/16 05:09:35;;;;;;;5.00;3.20;;;9.90;99.20;;;;;;5087154;28;20558;-57
2022/04/16 05:12:00;;;;;;;3.40;3.10;;;10.30;98.90;;;;;;5085485;28;20192;-57
2022/04/16 05:14:26;;;;;;;3.73;3.40;;;10.10;98.90;;;;;;5081635;28;20508;-58
2022/04/16 05:16:52;;;;;;;4.10;3.77;;;10.20;98.50;;;;;;5077665;28;20181;-57
2022/04/16 05:19:17;;;;;;;3.27;3.00;;;10.60;98.50;;;;;;5069667;28;20608;-57
2022/04/16 05:21:43;;;;;;;4.37;3.30;;;10.50;98.30;;;;;;5086875;28;20183;-57
2022/04/16 05:24:10;;;;;;;4.03;3.53;;;10.70;98.00;;;;;;5083679;28;20212;-57
2022/04/16 05:26:38;;;;;;;3.53;3.22;;;10.60;97.80;;;;;;5083707;28;20872;-58
2022/04/16 05:29:04;;;;;;;3.88;3.33;;;11.00;98.00;;;;;;5084829;28;20273;-57
2022/04/16 05:31:30;;;;;;;3.28;3.03;;;10.80;97.60;;;;;;5088187;28;20181;-57
2022/04/16 05:36:41;;;;;;;4.07;3.67;;;10.70;97.20;;;;;;5082927;28;20417;-58
2022/04/16 05:39:07;;;;;;;5.05;4.32;;;10.80;97.60;;;;;;5073645;28;20281;-58
2022/04/16 05:41:36;;;;;;;4.00;3.70;;;10.90;96.80;;;;;;5084652;28;20186;-59
2022/04/16 05:44:03;;;;;;;5.43;4.40;;;10.90;96.90;;;;;;5088117;28;21022;-58
2022/04/16 05:46:28;;;;;;;4.78;4.35;;;10.90;96.90;;;;;;5082127;28;20197;-58
2022/04/16 05:48:54;;;;;;;3.57;3.27;;;10.60;96.60;;;;;;5086372;28;20204;-58
2022/04/16 05:51:21;;;;;;;4.03;3.63;;;10.50;96.60;;;;;;5084538;28;20444;-58
2022/04/16 05:53:48;;;;;;;3.90;3.60;;;10.40;97.20;;;;;;5085830;28;20221;-60
2022/04/16 05:56:14;;;;;;;4.15;3.47;;;10.50;97.50;;;;;;5085190;28;20200;-60
2022/04/16 05:58:41;;;;;;;3.80;3.50;;;10.60;97.00;;;;;;5089145;28;20661;-57
2022/04/16 06:01:07;;;;;;;3.30;3.00;;;10.80;97.20;;;;;;5089079;28;20674;-56
2022/04/16 06:03:34;;;;;;;3.40;3.10;;;10.60;96.80;;;;;;5072000;28;20210;-58
2022/04/16 06:06:01;;;;;;;3.75;3.42;;;10.50;97.10;;;;;;5072146;28;20190;-57
2022/04/16 06:08:26;;;;;;;5.05;3.50;;;10.60;97.10;;;;;;5090286;28;20195;-56
2022/04/16 06:10:52;;;;;;;4.00;3.60;;;10.90;96.90;;;;;;5089979;28;20186;-57
2022/04/16 06:13:18;;;;;;;3.83;3.50;;;10.80;96.80;;;;;;5089420;28;20822;-58
2022/04/16 06:15:43;;;;;;;3.53;3.23;;;10.90;97.10;;;;;;5087292;28;20964;-57
2022/04/16 06:18:12;;;;;;;4.33;3.93;;;10.90;97.10;;;;;;5075412;28;20213;-57
2022/04/16 06:20:41;;;;;;;3.70;3.40;;;10.90;96.80;;;;;;5091773;28;20189;-59
2022/04/16 06:23:07;;;;;;;3.90;3.60;;;10.50;97.10;;;;;;5086787;28;20253;-60
2022/04/16 06:25:33;;;;;;;3.93;3.60;;;10.80;96.70;;;;;;5090558;28;20670;-60
2022/04/16 06:27:59;;;;;;;3.72;3.35;;;11.20;96.50;;;;;;5091504;28;20202;-60
2022/04/16 06:30:25;;;;;;;4.00;3.60;;;10.90;96.20;;;;;;5093093;28;20183;-60
2022/04/16 06:32:50;;;;;;;4.53;3.40;;;11.30;96.40;;;;;;5071175;28;21822;-57
2022/04/16 06:35:16;;;;;;;3.90;3.57;;;11.30;96.30;;;;;;5088352;28;20649;-57
2022/04/16 06:37:42;;;;;;;3.73;3.40;;;11.10;96.20;;;;;;5085759;28;20197;-57
2022/04/16 06:40:09;;;;;;;4.10;3.70;;;10.90;96.10;;;;;;5088830;28;20255;-57
2022/04/16 06:42:35;;;;;;;4.00;3.70;;;11.10;96.20;;;;;;5083818;28;20571;-57
2022/04/16 06:45:00;;;;;;;3.90;3.60;;;11.30;96.20;;;;;;5090544;28;20198;-57
2022/04/16 06:47:29;;;;;;;4.20;3.67;;;11.20;96.10;;;;;;5084778;28;20439;-58
2022/04/16 06:49:55;;;;;;;4.55;4.15;;;11.40;96.10;;;;;;5088131;28;20670;-60
2022/04/16 06:52:20;;;;;;;4.40;4.00;;;11.30;96.30;;;;;;5090148;28;20204;-60
2022/04/16 06:54:47;;;;;;;4.00;3.70;;;11.30;96.00;;;;;;5085802;28;21008;-61
2022/04/16 06:57:13;;;;;;;3.65;2.92;;;11.50;95.80;;;;;;5090131;28;20192;-60
2022/04/16 06:59:38;;;;;;;5.65;3.38;;;11.60;95.70;;;;;;5087433;28;20266;-60
2022/04/16 07:02:05;;;;;;;4.83;3.43;;;11.30;95.90;;;;;;5084960;28;20257;-60
2022/04/16 07:04:31;;;;;;;4.00;3.70;;;11.70;95.70;;;;;;5089418;28;20473;-60
2022/04/16 07:06:57;;;;;;;3.80;3.40;;;11.40;95.50;;;;;;5083961;28;20182;-60
2022/04/16 07:09:22;;;;;;;4.13;3.43;;;11.50;95.90;;;;;;5092176;28;20224;-60
2022/04/16 07:11:48;;;;;;;4.07;3.77;;;11.50;95.50;;;;;;5091744;28;20283;-60
2022/04/16 07:14:13;;;;;;;5.60;3.80;;;11.30;95.40;;;;;;5089734;28;20200;-60
2022/04/16 07:16:39;;;;;;;5.43;4.10;;;11.40;95.10;;;;;;5082252;28;20181;-60
2022/04/16 07:19:05;;;;;;;3.80;3.50;;;11.30;95.40;;;;;;5089907;28;20521;-60
2022/04/16 07:21:30;;;;;;;3.97;3.57;;;11.20;96.00;;;;;;5096260;28;20186;-60
2022/04/16 07:23:56;;;;;;;5.00;3.87;;;11.00;95.90;;;;;;5086843;28;20735;-60
2022/04/16 07:26:21;;;;;;;4.40;4.00;;;11.30;95.50;;;;;;5090288;28;20231;-60
2022/04/16 07:28:47;;;;;;;3.63;3.13;;;11.40;95.90;;;;;;5081480;28;20241;-65
2022/04/16 07:31:12;;;;;;;3.93;3.53;;;11.50;96.50;;;;;;5089388;28;20181;-68
2022/04/16 07:33:38;;;;;;;4.70;4.30;;;11.60;96.50;;;;;;5091695;28;20210;-68
2022/04/16 07:36:04;;;;;;;4.73;4.17;;;11.80;95.60;;;;;;5081079;28;20258;-69
2022/04/16 07:38:29;;;;;;;4.10;3.80;;;12.10;95.50;;;;;;5098725;28;20187;-71
2022/04/16 07:40:55;;;;;;;4.37;4.03;;;12.20;95.40;;;;;;5083855;28;20696;-61
2022/04/16 07:43:20;;;;;;;4.67;4.20;;;12.30;94.80;;;;;;5082092;28;20569;-64
2022/04/16 07:45:46;;;;;;;4.40;4.00;;;12.10;94.90;;;;;;5088179;28;20268;-62
2022/04/16 07:48:11;;;;;;;5.20;4.70;;;11.30;94.40;;;;;;5083956;28;20204;-60
2022/04/16 07:50:37;;;;;;;4.73;4.33;;;12.00;95.20;;;;;;5076984;28;20184;-61
2022/04/16 07:53:04;;;;;;;4.50;4.10;;;12.10;94.80;;;;;;5079807;28;20211;-61
2022/04/16 07:55:32;;;;;;;4.90;4.50;;;12.00;94.70;;;;;;5085727;28;20580;-60
2022/04/16 07:57:59;;;;;;;5.85;5.10;;;12.20;94.70;;;;;;5082046;28;20657;-61
2022/04/16 08:00:25;;;;;;;4.88;4.47;;;12.40;94.40;;;;;;5084634;28;20632;-61
2022/04/16 08:02:50;;;;;;;5.20;4.70;;;12.00;94.30;;;;;;5085134;28;20206;-65
2022/04/16 08:05:16;;;;;;;5.33;4.83;;;12.30;94.20;;;;;;5088978;28;20191;-67
2022/04/16 08:07:41;;;;;;;5.10;4.60;;;12.40;94.70;;;;;;5067470;28;20666;-61
2022/04/16 08:10:08;;;;;;;5.17;4.67;;;12.10;94.90;;;;;;5082425;28;20628;-61
2022/04/16 08:12:37;;;;;;;5.78;4.80;;;12.30;94.90;;;;;;5086272;28;20215;-61
2022/04/16 08:15:06;;;;;;;5.00;4.50;;;12.40;94.70;;;;;;5089445;28;20180;-61
2022/04/16 08:17:33;;;;;;;5.20;4.80;;;12.60;94.30;;;;;;5084296;28;20368;-61
2022/04/16 08:19:59;;;;;;;6.55;5.32;;;12.70;94.70;;;;;;5088273;28;20183;-61
2022/04/16 08:22:28;;;;;;;5.22;4.70;;;12.80;94.80;;;;;;5087228;28;20188;-61
2022/04/16 08:25:43;;;;;;;6.15;5.22;;;12.70;94.30;;;;;;5082616;28;20188;-61
2022/04/16 08:27:39;;;;;;;6.15;5.53;;;12.70;94.60;;;;;;5090468;28;20194;-61
2022/04/16 08:30:07;;;;;;;5.80;5.27;;;12.70;94.30;;;;;;5088695;28;20270;-61
2022/04/16 08:32:41;;;;;;;6.10;5.50;;;12.60;94.00;;;;;;5085872;28;20219;-61
2022/04/16 08:35:08;;;;;;;5.82;5.15;;;12.70;94.20;;;;;;5089092;28;20211;-61
2022/04/16 08:37:34;;;;;;;6.00;5.40;;;12.80;94.00;;;;;;5089192;28;20192;-61
2022/04/16 08:40:00;;;;;;;9.73;5.57;;;12.70;94.00;;;;;;5080700;28;20702;-61
2022/04/16 08:42:25;;;;;;;6.30;5.50;;;12.70;94.30;;;;;;5090050;28;20191;-62
2022/04/16 08:44:51;;;;;;;7.03;6.10;;;12.70;94.80;;;;;;5089871;28;20454;-62
2022/04/16 08:47:18;;;;;;;5.80;5.27;;;12.80;94.00;;;;;;5081129;28;20182;-61
2022/04/16 08:49:44;;;;;;;7.10;5.20;;;12.80;93.40;;;;;;5088288;28;20188;-61
2022/04/16 08:52:11;;;;;;;5.55;5.05;;;13.10;93.40;;;;;;5075776;28;20570;-61
2022/04/16 08:54:38;;;;;;;6.95;6.00;;;13.40;92.90;;;;;;5085659;28;20272;-61
2022/04/16 08:57:04;;;;;;;6.07;5.57;;;13.40;92.70;;;;;;5079654;28;20177;-61
2022/04/16 08:59:33;;;;;;;5.57;5.07;;;13.50;92.60;;;;;;5079298;28;20460;-61
2022/04/16 09:01:59;;;;;;;17.10;5.72;;;13.50;92.30;;;;;;5072893;28;20177;-61
2022/04/16 09:04:31;;;;;;;5.83;5.20;;;13.60;92.10;;;;;;5086463;28;20662;-60
2022/04/16 09:06:57;;;;;;;5.93;5.32;;;13.90;92.00;;;;;;5083902;28;20194;-61
2022/04/16 09:09:23;;;;;;;5.47;4.97;;;13.70;91.90;;;;;;5080568;28;20700;-61
2022/04/16 09:11:49;;;;;;;5.85;5.22;;;13.40;92.40;;;;;;5093777;28;20718;-61
2022/04/16 09:14:15;;;;;;;6.50;5.90;;;13.40;92.40;;;;;;5088356;28;20220;-61
2022/04/16 09:16:41;;;;;;;6.80;6.00;;;13.20;92.80;;;;;;5082834;28;20293;-61
2022/04/16 09:19:12;;;;;;;6.25;5.65;;;13.00;93.10;;;;;;5089119;28;20689;-62
2022/04/16 09:21:38;;;;;;;6.97;6.28;;;13.20;93.40;;;;;;5083312;28;20195;-58
2022/04/16 09:24:04;;;;;;;6.40;5.80;;;12.60;93.80;;;;;;5086805;28;20218;-58
2022/04/16 09:26:34;;;;;;;7.30;6.60;;;12.80;94.20;;;;;;5082640;28;20481;-58
2022/04/16 09:29:11;;;;;;;8.18;6.93;;;12.80;94.40;;;;;;5080940;28;20190;-58
2022/04/16 09:31:38;;;;;;;7.72;6.93;;;12.70;94.00;;;;;;5082214;28;20671;-56
2022/04/16 09:34:05;;;;;;;7.60;6.78;;;12.50;94.40;;;;;;5086603;28;20302;-57
2022/04/16 09:36:31;;;;;;;7.53;6.78;;;12.40;94.60;;;;;;5093021;28;20657;-57
2022/04/16 09:39:05;;;;;;;7.77;7.00;;;12.50;94.30;;;;;;5083777;28;20291;-58
2022/04/16 09:41:35;;;;;;;8.15;7.35;;;12.80;94.60;;;;;;5088937;28;20434;-57
2022/04/16 09:44:02;;;;;;;7.63;6.90;;;12.70;94.90;;;;;;5087074;28;20210;-58
2022/04/16 09:46:29;;;;;;;7.63;6.82;;;12.80;94.50;;;;;;5086195;28;20593;-59
2022/04/16 09:49:04;;;;;;;7.07;6.43;;;13.10;94.20;;;;;;5088509;28;20294;-56
2022/04/16 09:51:41;;;;;;;7.63;6.90;;;13.40;93.60;;;;;;5085285;28;20523;-56
2022/04/16 09:54:07;;;;;;;7.55;6.70;;;13.10;93.50;;;;;;5095507;28;20487;-57
2022/04/16 09:56:34;;;;;;;7.40;6.70;;;13.10;93.50;;;;;;5087642;28;20232;-59
2022/04/16 09:59:06;;;;;;;8.70;6.80;;;13.00;93.60;;;;;;5088472;28;20342;-57
2022/04/16 10:01:33;;;;;;;7.22;6.53;;;12.70;93.50;;;;;;5087260;28;20234;-57
2022/04/16 10:04:00;;;;;;;6.68;6.03;;;13.00;93.30;;;;;;5088076;28;20633;-57
2022/04/16 10:06:30;;;;;;;6.25;5.40;;;12.50;93.60;;;;;;5087841;28;20193;-58
2022/04/16 10:08:57;;;;;;;6.13;5.53;;;12.50;94.20;;;;;;5086997;28;20721;-59
2022/04/16 10:11:42;;;;;;;6.47;5.70;;;12.50;93.80;;;;;;5085272;28;20283;-58
2022/04/16 10:14:48;;;;;;;6.63;6.03;;;12.60;93.60;;;;;;5071130;28;20212;-57
2022/04/16 10:17:42;;;;;;;5.97;5.30;;;13.00;92.50;;;;;;5044986;28;20195;-56
2022/04/16 10:20:16;;;;;;;8.40;7.00;;;13.30;91.60;;;;;;5085442;28;20238;-56
2022/04/16 10:23:03;;;;;;;6.82;6.22;;;13.80;91.20;;;;;;5087401;28;20212;-57
2022/04/16 10:25:42;;;;;;;6.28;5.57;;;14.00;90.40;;;;;;5084278;28;20192;-58
2022/04/16 10:28:10;;;;;;;6.60;6.00;;;14.40;90.10;;;;;;5092560;28;20213;-58
2022/04/16 10:30:39;;;;;;;6.55;5.95;;;14.40;88.60;;;;;;5084721;28;20200;-58
2022/04/16 10:33:17;;;;;;;6.85;6.13;;;14.50;88.70;;;;;;5087743;28;20273;-58
2022/04/16 10:35:52;;;;;;;7.82;6.70;;;14.20;88.00;;;;;;5087009;28;20180;-58
2022/04/16 10:38:32;;;;;;;6.63;6.03;;;14.10;89.40;;;;;;5081113;28;20188;-56
2022/04/16 10:41:09;;;;;;;6.50;5.88;;;13.70;90.20;;;;;;5088192;28;20875;-57
2022/04/16 10:43:34;;;;;;;6.65;6.00;;;13.70;90.20;;;;;;5087754;28;20214;-58
2022/04/16 10:46:03;;;;;;;8.07;7.07;;;13.70;90.70;;;;;;5088453;28;20188;-59
2022/04/16 10:48:32;;;;;;;6.35;5.70;;;13.50;90.30;;;;;;5069041;28;20184;-58
2022/04/16 10:50:58;;;;;;;6.80;5.68;;;13.50;89.90;;;;;;5091985;28;20238;-58
2022/04/16 10:53:38;;;;;;;6.97;6.27;;;13.50;89.40;;;;;;5092205;28;20251;-57
2022/04/16 10:56:15;;;;;;;6.32;5.63;;;13.60;88.40;;;;;;5087280;28;20806;-57
2022/04/16 10:58:43;;;;;;;6.47;5.88;;;13.60;87.40;;;;;;5069674;28;20182;-58
2022/04/16 11:01:13;;;;;;;7.35;5.63;;;13.60;88.00;;;;;;5090590;28;20244;-58
2022/04/16 11:03:44;;;;;;;5.90;5.30;;;13.60;88.70;;;;;;5083356;28;20689;-58
2022/04/16 11:06:09;;;;;;;6.15;5.55;;;13.70;88.30;;;;;;5087089;28;20319;-58
2022/04/16 11:08:37;;;;;;;6.20;5.57;;;14.10;87.30;;;;;;5088680;28;20644;-58
2022/04/16 11:11:03;;;;;;;6.38;5.78;;;13.80;86.30;;;;;;5085917;28;20672;-57
2022/04/16 11:13:34;;;;;;;4.93;4.50;;;13.70;87.50;;;;;;5092441;28;20208;-59
2022/04/16 11:16:03;;;;;;;6.82;5.40;;;14.10;85.80;;;;;;5087034;28;20501;-57
2022/04/16 11:18:45;;;;;;;5.78;5.18;;;14.30;83.90;;;;;;5094061;28;20180;-58
2022/04/16 11:21:18;;;;;;;5.20;4.70;;;14.50;83.50;;;;;;5087789;28;20649;-57
2022/04/16 11:23:52;;;;;;;4.70;4.30;;;14.20;81.60;;;;;;5086107;28;20204;-58
2022/04/16 11:34:40;;;;;;;4.18;3.78;;;14.10;81.60;;;;;;5091478;28;20303;-58
2022/04/16 11:37:07;;;;;;;5.40;4.90;;;14.40;80.50;;;;;;5085105;28;20188;-58
2022/04/16 11:39:34;;;;;;;5.15;4.63;;;14.60;80.20;;;;;;5086483;28;20668;-57
2022/04/16 11:42:04;;;;;;;4.93;4.40;;;14.50;80.20;;;;;;5091265;28;20184;-59
2022/04/16 11:44:45;;;;;;;5.80;5.20;;;14.70;80.00;;;;;;5089160;28;20217;-58
2022/04/16 11:47:12;;;;;;;5.95;5.35;;;14.70;79.60;;;;;;5084469;28;20535;-57
2022/04/16 11:49:45;;;;;;;5.30;4.90;;;14.80;79.20;;;;;;5091415;28;20188;-57
2022/04/16 11:52:11;;;;;;;4.32;3.92;;;14.70;77.20;;;;;;5088886;28;20175;-58
2022/04/16 11:54:37;;;;;;;4.95;4.45;;;15.10;76.30;;;;;;5085169;28;20244;-59
2022/04/16 11:57:03;;;;;;;5.40;4.90;;;15.20;76.50;;;;;;5079477;28;20177;-59
2022/04/16 11:59:29;;;;;;;5.25;4.75;;;15.30;75.40;;;;;;5083591;28;20268;-59
2022/04/16 12:02:16;;;;;;;5.37;4.87;;;15.40;75.20;;;;;;5084925;28;20654;-59
2022/04/16 12:04:43;;;;;;;8.82;7.63;;;15.80;74.60;;;;;;5088985;28;20484;-59
2022/04/16 12:07:13;;;;;;;8.65;4.95;;;16.00;74.20;;;;;;5089193;28;20629;-59
2022/04/16 12:09:47;;;;;;;5.55;5.05;;;15.70;72.40;;;;;;5079497;28;20185;-59
2022/04/16 12:12:16;;;;;;;5.35;4.95;;;15.70;72.10;;;;;;5087800;28;20202;-59
2022/04/16 12:15:00;;;;;;;4.97;4.57;;;15.40;71.80;;;;;;5070534;28;20197;-58
2022/04/16 12:17:29;;;;;;;8.70;4.85;;;15.80;71.00;;;;;;5088144;28;20508;-58
2022/04/16 12:20:11;;;;;;;4.57;4.10;;;16.20;70.10;;;;;;5087803;28;20180;-59
2022/04/16 12:22:54;;;;;;;6.55;4.70;;;15.70;69.60;;;;;;5084272;28;20271;-59
2022/04/16 12:25:21;;;;;;;5.20;4.35;;;15.70;69.80;;;;;;5087208;28;20183;-57
2022/04/16 12:27:49;;;;;;;6.43;5.75;;;15.60;69.80;;;;;;5093760;28;20201;-58
2022/04/16 12:30:20;;;;;;;6.97;4.95;;;15.80;69.80;;;;;;5090811;28;20587;-58
2022/04/16 12:32:55;;;;;;;5.22;4.72;;;15.50;68.50;;;;;;5085175;28;20708;-58
2022/04/16 12:35:21;;;;;;;5.10;4.60;;;15.70;68.80;;;;;;5080653;28;20220;-65
2022/04/16 12:37:47;;;;;;;5.60;5.10;;;15.70;68.50;;;;;;5084694;28;20289;-62
2022/04/16 12:40:12;;;;;;;5.37;4.80;;;15.80;69.30;;;;;;5086107;28;20546;-63
2022/04/16 12:42:38;;;;;;;4.77;4.30;;;15.70;69.00;;;;;;5089948;28;20176;-65
2022/04/16 12:45:04;;;;;;;4.70;4.27;;;15.60;68.40;;;;;;5087578;28;20192;-62
2022/04/16 12:47:29;;;;;;;4.43;4.03;;;15.50;68.70;;;;;;5088846;28;20277;-63
2022/04/16 12:49:55;;;;;;;5.50;5.00;;;15.50;68.00;;;;;;5083784;28;20446;-61
2022/04/16 12:52:21;;;;;;;5.03;4.43;;;15.70;67.30;;;;;;5085080;28;20638;-60
2022/04/16 12:54:46;;;;;;;5.30;4.30;;;15.50;67.90;;;;;;5086930;28;20244;-60
2022/04/16 12:57:12;;;;;;;4.57;4.17;;;15.60;67.90;;;;;;5088119;28;20444;-62
2022/04/16 12:59:37;;;;;;;4.87;4.43;;;16.00;67.90;;;;;;5089885;28;20279;-61
2022/04/16 13:02:03;;;;;;;4.37;3.97;;;15.90;66.50;;;;;;5090058;28;20271;-61
2022/04/16 13:04:30;;;;;;;4.47;4.07;;;16.50;64.40;;;;;;5087923;28;20239;-61
2022/04/16 13:06:56;;;;;;;6.78;5.55;;;16.30;63.90;;;;;;5086564;28;20523;-62
2022/04/16 13:09:22;;;;;;;4.73;4.27;;;16.00;65.60;;;;;;5084388;28;20320;-62